Terminal Aerodrome Forecast
Issued by NWS

Home | Current Version | Previous Version | Text Only | Print | Product List | Glossary On
Versions: 1 2 3 4 5 6 7 8 9 10 11 12 13 14 15 16
160
FTUS45 KLKN 221720
TAFEKO
TAF
KEKO 221720Z 2218/2318 VRB03KT P6SM VCTS BKN070CB
     FM222000 25007KT P6SM VCTS OVC070CB
      TEMPO 2221/2301 VRB15G32KT 6SM -TSRA BKN050CB
     FM230200 VRB06KT P6SM VCSH SCT050 OVC070
      TEMPO 2302/2306 -SHRA BKN045=

USA.gov is the U.S. government's official web portal to all federal, state and local government web resources and services.